sensor_id;sensor_type;location;lat;lon;timestamp;pressure;altitude;pressure_sealevel;temperature;humidity
69318;BME280;56457;52.190;4.440;2023-03-03T00:00:50;102713.00;;;2.80;100.00
69318;BME280;56457;52.190;4.440;2023-03-03T00:01:50;102713.13;;;2.83;100.00
69318;BME280;56457;52.190;4.440;2023-03-03T00:02:51;102717.63;;;2.86;100.00
69318;BME280;56457;52.190;4.440;2023-03-03T00:03:51;102713.22;;;2.85;100.00
69318;BME280;56457;52.190;4.440;2023-03-03T00:04:51;102714.22;;;2.87;100.00
69318;BME280;56457;52.190;4.440;2023-03-03T00:05:52;102711.75;;;2.90;100.00
69318;BME280;56457;52.190;4.440;2023-03-03T00:06:52;102713.22;;;2.85;100.00
69318;BME280;56457;52.190;4.440;2023-03-03T00:07:52;102714.03;;;2.84;100.00
69318;BME280;56457;52.190;4.440;2023-03-03T00:08:53;102713.88;;;2.81;100.00
69318;BME280;56457;52.190;4.440;2023-03-03T00:09:53;102721.16;;;2.88;100.00
69318;BME280;56457;52.190;4.440;2023-03-03T00:10:54;102726.44;;;2.89;100.00
69318;BME280;56457;52.190;4.440;2023-03-03T00:11:55;102722.31;;;2.93;100.00
69318;BME280;56457;52.190;4.440;2023-03-03T00:12:56;102716.31;;;2.94;100.00
69318;BME280;56457;52.190;4.440;2023-03-03T00:13:57;102719.53;;;2.90;100.00
69318;BME280;56457;52.190;4.440;2023-03-03T00:14:57;102717.03;;;2.91;100.00
69318;BME280;56457;52.190;4.440;2023-03-03T00:16:11;102722.81;;;2.86;100.00
69318;BME280;56457;52.190;4.440;2023-03-03T00:17:20;102714.09;;;2.85;100.00
69318;BME280;56457;52.190;4.440;2023-03-03T00:18:24;102721.16;;;2.88;100.00
69318;BME280;56457;52.190;4.440;2023-03-03T00:19:25;102720.28;;;2.87;100.00
69318;BME280;56457;52.190;4.440;2023-03-03T00:21:29;102723.84;;;2.89;100.00
69318;BME280;56457;52.190;4.440;2023-03-03T00:22:32;102724.16;;;2.95;100.00
69318;BME280;56457;52.190;4.440;2023-03-03T00:23:35;102726.50;;;2.91;100.00
69318;BME280;56457;52.190;4.440;2023-03-03T00:24:36;102723.41;;;2.98;100.00
69318;BME280;56457;52.190;4.440;2023-03-03T00:25:36;102720.03;;;2.99;100.00
69318;BME280;56457;52.190;4.440;2023-03-03T00:26:37;102729.53;;;2.99;100.00
69318;BME280;56457;52.190;4.440;2023-03-03T00:27:38;102723.13;;;2.92;100.00
69318;BME280;56457;52.190;4.440;2023-03-03T00:28:51;102714.91;;;2.84;100.00
69318;BME280;56457;52.190;4.440;2023-03-03T00:29:54;102728.63;;;2.82;100.00
69318;BME280;56457;52.190;4.440;2023-03-03T00:30:56;102723.44;;;2.82;100.00
69318;BME280;56457;52.190;4.440;2023-03-03T00:33:18;102728.88;;;2.86;100.00
69318;BME280;56457;52.190;4.440;2023-03-03T00:34:27;102726.28;;;2.86;100.00
69318;BME280;56457;52.190;4.440;2023-03-03T00:35:28;102726.91;;;2.82;100.00
69318;BME280;56457;52.190;4.440;2023-03-03T00:36:36;102730.41;;;2.83;100.00
69318;BME280;56457;52.190;4.440;2023-03-03T00:37:37;102730.31;;;2.81;100.00
69318;BME280;56457;52.190;4.440;2023-03-03T00:38:39;102734.50;;;2.79;100.00
69318;BME280;56457;52.190;4.440;2023-03-03T00:39:40;102732.84;;;2.80;100.00
69318;BME280;56457;52.190;4.440;2023-03-03T00:40:40;102729.25;;;2.78;100.00
69318;BME280;56457;52.190;4.440;2023-03-03T00:41:41;102722.16;;;2.74;100.00
69318;BME280;56457;52.190;4.440;2023-03-03T00:42:43;102723.72;;;2.72;100.00
69318;BME280;56457;52.190;4.440;2023-03-03T00:43:45;102723.03;;;2.74;100.00
69318;BME280;56457;52.190;4.440;2023-03-03T00:44:46;102729.25;;;2.78;100.00
69318;BME280;56457;52.190;4.440;2023-03-03T00:45:56;102726.66;;;2.78;100.00
69318;BME280;56457;52.190;4.440;2023-03-03T00:46:57;102724.97;;;2.78;100.00
69318;BME280;56457;52.190;4.440;2023-03-03T00:48:10;102724.16;;;2.79;100.00
69318;BME280;56457;52.190;4.440;2023-03-03T00:49:22;102716.28;;;2.78;100.00
69318;BME280;56457;52.190;4.440;2023-03-03T00:50:26;102731.91;;;2.79;100.00
69318;BME280;56457;52.190;4.440;2023-03-03T00:51:33;102725.84;;;2.79;100.00
69318;BME280;56457;52.190;4.440;2023-03-03T00:52:40;102724.56;;;2.70;100.00
69318;BME280;56457;52.190;4.440;2023-03-03T00:53:43;102727.31;;;2.74;100.00
69318;BME280;56457;52.190;4.440;2023-03-03T00:54:44;102722.91;;;2.73;100.00
69318;BME280;56457;52.190;4.440;2023-03-03T00:55:45;102724.56;;;2.70;100.00
69318;BME280;56457;52.190;4.440;2023-03-03T00:56:45;102732.31;;;2.70;100.00
69318;BME280;56457;52.190;4.440;2023-03-03T00:57:46;102732.31;;;2.70;100.00
69318;BME280;56457;52.190;4.440;2023-03-03T00:58:46;102725.44;;;2.71;100.00
69318;BME280;56457;52.190;4.440;2023-03-03T00:59:47;102732.19;;;2.67;100.00
69318;BME280;56457;52.190;4.440;2023-03-03T01:00:48;102724.22;;;2.64;100.00
69318;BME280;56457;52.190;4.440;2023-03-03T01:01:48;102728.59;;;2.65;100.00
69318;BME280;56457;52.190;4.440;2023-03-03T01:02:49;102725.19;;;2.66;100.00
69318;BME280;56457;52.190;4.440;2023-03-03T01:03:49;102721.81;;;2.67;100.00
69318;BME280;56457;52.190;4.440;2023-03-03T01:04:50;102728.78;;;2.68;100.00
69318;BME280;56457;52.190;4.440;2023-03-03T01:05:52;102725.09;;;2.65;100.00
69318;BME280;56457;52.190;4.440;2023-03-03T01:06:52;102729.41;;;2.64;100.00
69318;BME280;56457;52.190;4.440;2023-03-03T01:07:52;102724.16;;;2.63;100.00
69318;BME280;56457;52.190;4.440;2023-03-03T01:08:53;102724.84;;;2.60;100.00
69318;BME280;56457;52.190;4.440;2023-03-03T01:09:56;102725.03;;;2.63;100.00
69318;BME280;56457;52.190;4.440;2023-03-03T01:10:57;102721.47;;;2.61;100.00
69318;BME280;56457;52.190;4.440;2023-03-03T01:11:59;102724.84;;;2.60;100.00
69318;BME280;56457;52.190;4.440;2023-03-03T01:12:59;102718.63;;;2.57;100.00
69318;BME280;56457;52.190;4.440;2023-03-03T01:14:00;102721.28;;;2.58;100.00
69318;BME280;56457;52.190;4.440;2023-03-03T01:15:00;102721.28;;;2.58;100.00
69318;BME280;56457;52.190;4.440;2023-03-03T01:16:01;102724.84;;;2.60;100.00
69318;BME280;56457;52.190;4.440;2023-03-03T01:17:02;102729.25;;;2.61;100.00
69318;BME280;56457;52.190;4.440;2023-03-03T01:18:02;102718.69;;;2.58;100.00
69318;BME280;56457;52.190;4.440;2023-03-03T01:19:03;102731.66;;;2.58;100.00
69318;BME280;56457;52.190;4.440;2023-03-03T01:20:03;102728.09;;;2.56;100.00
69318;BME280;56457;52.190;4.440;2023-03-03T01:21:04;102733.22;;;2.55;100.00
69318;BME280;56457;52.190;4.440;2023-03-03T01:22:04;102725.31;;;2.53;100.00
69318;BME280;56457;52.190;4.440;2023-03-03T01:23:05;102729.63;;;2.53;100.00
69318;BME280;56457;52.190;4.440;2023-03-03T01:24:05;102733.03;;;2.52;100.00
69318;BME280;56457;52.190;4.440;2023-03-03T01:25:06;102730.97;;;2.46;100.00
69318;BME280;56457;52.190;4.440;2023-03-03T01:26:09;102734.66;;;2.50;100.00
69318;BME280;56457;52.190;4.440;2023-03-03T01:27:10;102734.72;;;2.51;100.00
69318;BME280;56457;52.190;4.440;2023-03-03T01:28:11;102734.72;;;2.51;100.00
69318;BME280;56457;52.190;4.440;2023-03-03T01:29:11;102726.94;;;2.51;100.00
69318;BME280;56457;52.190;4.440;2023-03-03T01:30:12;102727.75;;;2.50;100.00
69318;BME280;56457;52.190;4.440;2023-03-03T01:31:12;102727.75;;;2.50;100.00
69318;BME280;56457;52.190;4.440;2023-03-03T01:32:13;102729.47;;;2.50;100.00
69318;BME280;56457;52.190;4.440;2023-03-03T01:33:13;102720.88;;;2.51;100.00
69318;BME280;56457;52.190;4.440;2023-03-03T01:34:14;102724.28;;;2.50;100.00
69318;BME280;56457;52.190;4.440;2023-03-03T01:35:14;102725.09;;;2.49;100.00
69318;BME280;56457;52.190;4.440;2023-03-03T01:36:15;102725.97;;;2.49;100.00
69318;BME280;56457;52.190;4.440;2023-03-03T01:37:15;102721.50;;;2.47;100.00
69318;BME280;56457;52.190;4.440;2023-03-03T01:38:15;102731.72;;;2.43;100.00
69318;BME280;56457;52.190;4.440;2023-03-03T01:39:16;102729.19;;;2.45;100.00
69318;BME280;56457;52.190;4.440;2023-03-03T01:40:18;102735.19;;;2.44;100.00
69318;BME280;56457;52.190;4.440;2023-03-03T01:41:19;102726.44;;;2.42;100.00
69318;BME280;56457;52.190;4.440;2023-03-03T01:42:20;102728.25;;;2.43;100.00
69318;BME280;56457;52.190;4.440;2023-03-03T01:43:20;102720.28;;;2.40;100.00
69318;BME280;56457;52.190;4.440;2023-03-03T01:44:21;102727.97;;;2.38;100.00
69318;BME280;56457;52.190;4.440;2023-03-03T01:45:25;102720.28;;;2.40;100.00
69318;BME280;56457;52.190;4.440;2023-03-03T01:47:27;102730.56;;;2.38;100.00
69318;BME280;56457;52.190;4.440;2023-03-03T01:48:41;102726.09;;;2.36;100.00
69318;BME280;56457;52.190;4.440;2023-03-03T01:49:46;102728.69;;;2.36;100.00
69318;BME280;56457;52.190;4.440;2023-03-03T01:50:59;102728.53;;;2.33;100.00
69318;BME280;56457;52.190;4.440;2023-03-03T01:52:00;102728.53;;;2.33;100.00
69318;BME280;56457;52.190;4.440;2023-03-03T01:53:02;102729.34;;;2.32;100.00
69318;BME280;56457;52.190;4.440;2023-03-03T01:54:05;102728.34;;;2.30;100.00
69318;BME280;56457;52.190;4.440;2023-03-03T01:55:11;102724.84;;;2.29;100.00
69318;BME280;56457;52.190;4.440;2023-03-03T01:56:12;102724.78;;;2.28;100.00
69318;BME280;56457;52.190;4.440;2023-03-03T01:57:15;102726.41;;;2.26;100.00
69318;BME280;56457;52.190;4.440;2023-03-03T01:58:20;102728.09;;;2.25;100.00
69318;BME280;56457;52.190;4.440;2023-03-03T01:59:25;102728.91;;;2.24;100.00
69318;BME280;56457;52.190;4.440;2023-03-03T02:00:26;102728.03;;;2.24;100.00
69318;BME280;56457;52.190;4.440;2023-03-03T02:01:27;102728.81;;;2.23;100.00
69318;BME280;56457;52.190;4.440;2023-03-03T02:02:28;102726.31;;;2.24;100.00
69318;BME280;56457;52.190;4.440;2023-03-03T02:03:28;102722.84;;;2.24;100.00
69318;BME280;56457;52.190;4.440;2023-03-03T02:04:29;102720.25;;;2.24;100.00
69318;BME280;56457;52.190;4.440;2023-03-03T02:05:30;102721.03;;;2.23;100.00
69318;BME280;56457;52.190;4.440;2023-03-03T02:06:35;102721.84;;;2.22;100.00
69318;BME280;56457;52.190;4.440;2023-03-03T02:07:37;102722.66;;;2.21;100.00
69318;BME280;56457;52.190;4.440;2023-03-03T02:08:39;102721.75;;;2.20;100.00
69318;BME280;56457;52.190;4.440;2023-03-03T02:10:58;102722.50;;;2.18;100.00
69318;BME280;56457;52.190;4.440;2023-03-03T02:12:00;102721.69;;;2.19;100.00
69318;BME280;56457;52.190;4.440;2023-03-03T02:13:01;102718.91;;;2.15;100.00
69318;BME280;56457;52.190;4.440;2023-03-03T02:14:02;102720.53;;;2.13;100.00
69318;BME280;56457;52.190;4.440;2023-03-03T02:15:18;102711.06;;;2.14;100.00
69318;BME280;56457;52.190;4.440;2023-03-03T02:16:19;102720.53;;;2.13;100.00
69318;BME280;56457;52.190;4.440;2023-03-03T02:17:20;102710.88;;;2.11;100.00
69318;BME280;56457;52.190;4.440;2023-03-03T02:18:20;102715.16;;;2.10;100.00
69318;BME280;56457;52.190;4.440;2023-03-03T02:21:41;102725.53;;;2.10;100.00
69318;BME280;56457;52.190;4.440;2023-03-03T02:25:04;102715.97;;;2.09;100.00
69318;BME280;56457;52.190;4.440;2023-03-03T02:26:17;102717.66;;;2.09;100.00
69318;BME280;56457;52.190;4.440;2023-03-03T02:27:21;102716.78;;;2.08;100.00
69318;BME280;56457;52.190;4.440;2023-03-03T02:28:22;102709.91;;;2.09;100.00
69318;BME280;56457;52.190;4.440;2023-03-03T02:29:23;102715.91;;;2.08;100.00
69318;BME280;56457;52.190;4.440;2023-03-03T02:30:24;102716.63;;;2.05;100.00
69318;BME280;56457;52.190;4.440;2023-03-03T02:31:26;102712.59;;;1.96;100.00
69318;BME280;56457;52.190;4.440;2023-03-03T02:32:27;102716.63;;;1.91;100.00
69318;BME280;56457;52.190;4.440;2023-03-03T02:33:27;102709.88;;;1.93;100.00
69318;BME280;56457;52.190;4.440;2023-03-03T02:34:28;102717.16;;;2.00;100.00
69318;BME280;56457;52.190;4.440;2023-03-03T02:35:30;102709.63;;;2.04;100.00
69318;BME280;56457;52.190;4.440;2023-03-03T02:36:35;102713.22;;;2.06;100.00
69318;BME280;56457;52.190;4.440;2023-03-03T02:37:36;102710.72;;;2.08;100.00
69318;BME280;56457;52.190;4.440;2023-03-03T02:38:38;102707.84;;;2.03;100.00
69318;BME280;56457;52.190;4.440;2023-03-03T02:39:41;102705.13;;;2.00;100.00
69318;BME280;56457;52.190;4.440;2023-03-03T02:43:03;102711.34;;;2.04;100.00
69318;BME280;56457;52.190;4.440;2023-03-03T02:44:05;102707.06;;;2.04;100.00
69318;BME280;56457;52.190;4.440;2023-03-03T02:45:06;102701.09;;;2.05;100.00
69318;BME280;56457;52.190;4.440;2023-03-03T02:46:07;102706.16;;;2.04;100.00
69318;BME280;56457;52.190;4.440;2023-03-03T02:47:07;102705.28;;;2.03;100.00
69318;BME280;56457;52.190;4.440;2023-03-03T02:48:08;102714.75;;;2.03;100.00
69318;BME280;56457;52.190;4.440;2023-03-03T02:49:09;102708.66;;;2.02;100.00
69318;BME280;56457;52.190;4.440;2023-03-03T02:50:09;102702.41;;;1.99;100.00
69318;BME280;56457;52.190;4.440;2023-03-03T02:51:10;102701.53;;;1.98;100.00
69318;BME280;56457;52.190;4.440;2023-03-03T02:52:10;102701.28;;;1.94;100.00
69318;BME280;56457;52.190;4.440;2023-03-03T02:53:11;102706.34;;;1.92;100.00
69318;BME280;56457;52.190;4.440;2023-03-03T02:54:12;102700.41;;;1.93;100.00
69318;BME280;56457;52.190;4.440;2023-03-03T02:55:13;102705.56;;;1.93;100.00
69318;BME280;56457;52.190;4.440;2023-03-03T02:56:13;102696.91;;;1.93;100.00
69318;BME280;56457;52.190;4.440;2023-03-03T02:57:13;102706.34;;;1.92;100.00
69318;BME280;56457;52.190;4.440;2023-03-03T02:58:14;102708.31;;;1.96;100.00
69318;BME280;56457;52.190;4.440;2023-03-03T02:59:14;102710.19;;;1.99;100.00
69318;BME280;56457;52.190;4.440;2023-03-03T03:00:14;102701.53;;;1.98;100.00
69318;BME280;56457;52.190;4.440;2023-03-03T03:01:15;102704.91;;;1.97;100.00
69318;BME280;56457;52.190;4.440;2023-03-03T03:02:15;102706.19;;;1.89;100.00
69318;BME280;56457;52.190;4.440;2023-03-03T03:03:15;102709.41;;;1.85;100.00
69318;BME280;56457;52.190;4.440;2023-03-03T03:04:19;102709.94;;;1.79;100.00
69318;BME280;56457;52.190;4.440;2023-03-03T03:05:20;102704.69;;;1.78;100.00
69318;BME280;56457;52.190;4.440;2023-03-03T03:06:20;102703.06;;;1.80;100.00
69318;BME280;56457;52.190;4.440;2023-03-03T03:07:20;102708.06;;;1.77;100.00
69318;BME280;56457;52.190;4.440;2023-03-03T03:08:21;102708.00;;;1.75;100.00
69318;BME280;56457;52.190;4.440;2023-03-03T03:09:22;102702.09;;;1.78;100.00
69318;BME280;56457;52.190;4.440;2023-03-03T03:10:23;102712.44;;;1.78;100.00
69318;BME280;56457;52.190;4.440;2023-03-03T03:11:24;102711.47;;;1.76;100.00
69318;BME280;56457;52.190;4.440;2023-03-03T03:12:24;102709.03;;;1.79;100.00
69318;BME280;56457;52.190;4.440;2023-03-03T03:13:25;102712.63;;;1.81;100.00
69318;BME280;56457;52.190;4.440;2023-03-03T03:14:25;102709.25;;;1.82;100.00
69318;BME280;56457;52.190;4.440;2023-03-03T03:15:25;102705.22;;;1.87;100.00
69318;BME280;56457;52.190;4.440;2023-03-03T03:16:26;102701.97;;;1.91;100.00
69318;BME280;56457;52.190;4.440;2023-03-03T03:17:26;102710.75;;;1.93;100.00
69318;BME280;56457;52.190;4.440;2023-03-03T03:18:27;102709.22;;;1.97;100.00
69318;BME280;56457;52.190;4.440;2023-03-03T03:19:27;102715.47;;;2.00;100.00
69318;BME280;56457;52.190;4.440;2023-03-03T03:20:28;102715.47;;;2.00;100.00
69318;BME280;56457;52.190;4.440;2023-03-03T03:21:28;102705.00;;;1.99;100.00
69318;BME280;56457;52.190;4.440;2023-03-03T03:22:29;102709.28;;;1.98;100.00
69318;BME280;56457;52.190;4.440;2023-03-03T03:23:29;102708.50;;;1.99;100.00
69318;BME280;56457;52.190;4.440;2023-03-03T03:24:30;102715.34;;;1.99;100.00
69318;BME280;56457;52.190;4.440;2023-03-03T03:25:30;102714.47;;;1.98;100.00
69318;BME280;56457;52.190;4.440;2023-03-03T03:26:30;102712.69;;;1.97;100.00
69318;BME280;56457;52.190;4.440;2023-03-03T03:27:31;102712.69;;;1.97;100.00
69318;BME280;56457;52.190;4.440;2023-03-03T03:28:31;102709.88;;;1.93;100.00
69318;BME280;56457;52.190;4.440;2023-03-03T03:29:31;102709.88;;;1.93;100.00
69318;BME280;56457;52.190;4.440;2023-03-03T03:30:32;102715.03;;;1.93;100.00
69318;BME280;56457;52.190;4.440;2023-03-03T03:31:32;102720.75;;;1.87;100.00
69318;BME280;56457;52.190;4.440;2023-03-03T03:32:32;102718.94;;;1.86;100.00
69318;BME280;56457;52.190;4.440;2023-03-03T03:33:33;102719.88;;;1.86;100.00
69318;BME280;56457;52.190;4.440;2023-03-03T03:34:33;102724.31;;;1.89;100.00
69318;BME280;56457;52.190;4.440;2023-03-03T03:35:34;102724.31;;;1.89;100.00
69318;BME280;56457;52.190;4.440;2023-03-03T03:36:35;102732.88;;;1.88;100.00
69318;BME280;56457;52.190;4.440;2023-03-03T03:37:37;102722.63;;;1.89;100.00
69318;BME280;56457;52.190;4.440;2023-03-03T03:38:37;102723.06;;;1.82;100.00
69318;BME280;56457;52.190;4.440;2023-03-03T03:39:37;102722.19;;;1.82;100.00
69318;BME280;56457;52.190;4.440;2023-03-03T03:40:38;102723.06;;;1.82;100.00
69318;BME280;56457;52.190;4.440;2023-03-03T03:41:38;102728.94;;;1.80;100.00
69318;BME280;56457;52.190;4.440;2023-03-03T03:42:39;102722.19;;;1.82;100.00
69318;BME280;56457;52.190;4.440;2023-03-03T03:43:40;102727.97;;;1.78;100.00
69318;BME280;56457;52.190;4.440;2023-03-03T03:44:40;102724.69;;;1.80;100.00
69318;BME280;56457;52.190;4.440;2023-03-03T03:45:41;102728.16;;;1.81;100.00
69318;BME280;56457;52.190;4.440;2023-03-03T03:46:42;102719.59;;;1.82;100.00
69318;BME280;56457;52.190;4.440;2023-03-03T03:47:42;102722.09;;;1.80;100.00
69318;BME280;56457;52.190;4.440;2023-03-03T03:48:42;102729.13;;;1.83;100.00
69318;BME280;56457;52.190;4.440;2023-03-03T03:49:42;102731.00;;;1.85;100.00
69318;BME280;56457;52.190;4.440;2023-03-03T03:50:43;102733.69;;;1.87;100.00
69318;BME280;56457;52.190;4.440;2023-03-03T03:51:43;102730.31;;;1.88;100.00
69318;BME280;56457;52.190;4.440;2023-03-03T03:52:43;102734.47;;;1.86;100.00
69318;BME280;56457;52.190;4.440;2023-03-03T03:53:44;102734.31;;;1.83;100.00
69318;BME280;56457;52.190;4.440;2023-03-03T03:54:44;102726.34;;;1.80;100.00
69318;BME280;56457;52.190;4.440;2023-03-03T03:55:45;102726.34;;;1.80;100.00
69318;BME280;56457;52.190;4.440;2023-03-03T03:56:45;102732.81;;;1.86;100.00
69318;BME280;56457;52.190;4.440;2023-03-03T03:57:45;102733.69;;;1.87;100.00
69318;BME280;56457;52.190;4.440;2023-03-03T03:58:45;102732.00;;;1.87;100.00
69318;BME280;56457;52.190;4.440;2023-03-03T03:59:48;102734.38;;;1.84;100.00
69318;BME280;56457;52.190;4.440;2023-03-03T04:00:48;102742.53;;;1.76;100.00
69318;BME280;56457;52.190;4.440;2023-03-03T04:01:48;102737.16;;;1.73;100.00
69318;BME280;56457;52.190;4.440;2023-03-03T04:02:49;102739.38;;;1.67;100.00
69318;BME280;56457;52.190;4.440;2023-03-03T04:03:50;102741.00;;;1.65;100.00
69318;BME280;56457;52.190;4.440;2023-03-03T04:04:50;102741.00;;;1.65;100.00
69318;BME280;56457;52.190;4.440;2023-03-03T04:05:51;102744.31;;;1.62;100.00
69318;BME280;56457;52.190;4.440;2023-03-03T04:06:51;102736.44;;;1.60;100.00
69318;BME280;56457;52.190;4.440;2023-03-03T04:07:52;102748.69;;;1.63;100.00
69318;BME280;56457;52.190;4.440;2023-03-03T04:08:52;102745.81;;;1.73;100.00
69318;BME280;56457;52.190;4.440;2023-03-03T04:09:53;102743.41;;;1.76;100.00
69318;BME280;56457;52.190;4.440;2023-03-03T04:10:54;102741.88;;;1.80;100.00
69318;BME280;56457;52.190;4.440;2023-03-03T04:11:54;102744.75;;;1.84;100.00
69318;BME280;56457;52.190;4.440;2023-03-03T04:12:54;102743.03;;;1.85;100.00
69318;BME280;56457;52.190;4.440;2023-03-03T04:13:54;102745.63;;;1.85;100.00
69318;BME280;56457;52.190;4.440;2023-03-03T04:14:55;102743.84;;;1.84;100.00
69318;BME280;56457;52.190;4.440;2023-03-03T04:15:55;102746.28;;;1.81;100.00
69318;BME280;56457;52.190;4.440;2023-03-03T04:16:55;102742.88;;;1.82;100.00
69318;BME280;56457;52.190;4.440;2023-03-03T04:17:56;102742.97;;;1.83;100.00
69318;BME280;56457;52.190;4.440;2023-03-03T04:18:56;102746.91;;;1.77;100.00
69318;BME280;56457;52.190;4.440;2023-03-03T04:19:56;102745.66;;;1.70;100.00
69318;BME280;56457;52.190;4.440;2023-03-03T04:20:57;102753.03;;;1.64;100.00
69318;BME280;56457;52.190;4.440;2023-03-03T04:21:57;102746.09;;;1.63;100.00
69318;BME280;56457;52.190;4.440;2023-03-03T04:22:57;102752.84;;;1.61;100.00
69318;BME280;56457;52.190;4.440;2023-03-03T04:23:57;102752.69;;;1.58;100.00
69318;BME280;56457;52.190;4.440;2023-03-03T04:24:59;102748.25;;;1.55;100.00
69318;BME280;56457;52.190;4.440;2023-03-03T04:25:59;102747.44;;;1.56;100.00
69318;BME280;56457;52.190;4.440;2023-03-03T04:26:59;102749.75;;;1.52;100.00
69318;BME280;56457;52.190;4.440;2023-03-03T04:28:00;102740.28;;;1.52;100.00
69318;BME280;56457;52.190;4.440;2023-03-03T04:29:00;102748.41;;;1.58;100.00
69318;BME280;56457;52.190;4.440;2023-03-03T04:30:00;102749.22;;;1.57;100.00
69318;BME280;56457;52.190;4.440;2023-03-03T04:31:01;102748.59;;;1.61;100.00
69318;BME280;56457;52.190;4.440;2023-03-03T04:32:02;102748.69;;;1.63;100.00
69318;BME280;56457;52.190;4.440;2023-03-03T04:33:02;102751.44;;;1.66;100.00
69318;BME280;56457;52.190;4.440;2023-03-03T04:34:02;102752.31;;;1.67;100.00
69318;BME280;56457;52.190;4.440;2023-03-03T04:35:03;102750.63;;;1.67;100.00
69318;BME280;56457;52.190;4.440;2023-03-03T04:36:03;102750.25;;;1.61;100.00
69318;BME280;56457;52.190;4.440;2023-03-03T04:37:04;102746.00;;;1.61;100.00
69318;BME280;56457;52.190;4.440;2023-03-03T04:38:04;102755.34;;;1.59;100.00
69318;BME280;56457;52.190;4.440;2023-03-03T04:39:04;102745.81;;;1.58;100.00
69318;BME280;56457;52.190;4.440;2023-03-03T04:40:05;102749.00;;;1.54;100.00
69318;BME280;56457;52.190;4.440;2023-03-03T04:41:06;102748.84;;;1.51;100.00
69318;BME280;56457;52.190;4.440;2023-03-03T04:42:06;102754.53;;;1.46;100.00
69318;BME280;56457;52.190;4.440;2023-03-03T04:43:07;102754.63;;;1.47;100.00
69318;BME280;56457;52.190;4.440;2023-03-03T04:44:07;102755.00;;;1.53;100.00
69318;BME280;56457;52.190;4.440;2023-03-03T04:45:07;102750.63;;;1.52;100.00
69318;BME280;56457;52.190;4.440;2023-03-03T04:46:08;102752.31;;;1.52;100.00
69318;BME280;56457;52.190;4.440;2023-03-03T04:47:08;102757.50;;;1.52;100.00
69318;BME280;56457;52.190;4.440;2023-03-03T04:48:09;102748.03;;;1.52;100.00
69318;BME280;56457;52.190;4.440;2023-03-03T04:49:09;102753.22;;;1.52;100.00
69318;BME280;56457;52.190;4.440;2023-03-03T04:50:09;102754.81;;;1.50;100.00
69318;BME280;56457;52.190;4.440;2023-03-03T04:51:10;102758.22;;;1.49;100.00
69318;BME280;56457;52.190;4.440;2023-03-03T04:52:10;102754.63;;;1.47;100.00
69318;BME280;56457;52.190;4.440;2023-03-03T04:53:10;102761.41;;;1.45;100.00
69318;BME280;56457;52.190;4.440;2023-03-03T04:54:11;102759.63;;;1.44;100.00
69318;BME280;56457;52.190;4.440;2023-03-03T04:55:11;102766.59;;;1.45;100.00
69318;BME280;56457;52.190;4.440;2023-03-03T04:56:11;102760.31;;;1.42;100.00
69318;BME280;56457;52.190;4.440;2023-03-03T04:57:11;102768.00;;;1.40;100.00
69318;BME280;56457;52.190;4.440;2023-03-03T04:58:12;102757.66;;;1.40;100.00
69318;BME280;56457;52.190;4.440;2023-03-03T04:59:12;102762.75;;;1.39;100.00
69318;BME280;56457;52.190;4.440;2023-03-03T05:00:13;102759.34;;;1.40;100.00
69318;BME280;56457;52.190;4.440;2023-03-03T05:01:13;102761.03;;;1.39;100.00
69318;BME280;56457;52.190;4.440;2023-03-03T05:02:14;102771.47;;;1.41;100.00
69318;BME280;56457;52.190;4.440;2023-03-03T05:03:14;102765.31;;;1.39;100.00
69318;BME280;56457;52.190;4.440;2023-03-03T05:04:15;102762.03;;;1.41;100.00
69318;BME280;56457;52.190;4.440;2023-03-03T05:05:15;102761.03;;;1.39;100.00
69318;BME280;56457;52.190;4.440;2023-03-03T05:06:15;102764.44;;;1.38;100.00
69318;BME280;56457;52.190;4.440;2023-03-03T05:07:17;102754.97;;;1.39;100.00
69318;BME280;56457;52.190;4.440;2023-03-03T05:08:19;102758.47;;;1.39;100.00
69318;BME280;56457;52.190;4.440;2023-03-03T05:09:19;102759.44;;;1.41;100.00
69318;BME280;56457;52.190;4.440;2023-03-03T05:10:19;102761.22;;;1.42;100.00
69318;BME280;56457;52.190;4.440;2023-03-03T05:11:20;102758.47;;;1.39;100.00
69318;BME280;56457;52.190;4.440;2023-03-03T05:12:20;102759.06;;;1.35;100.00
69318;BME280;56457;52.190;4.440;2023-03-03T05:13:21;102760.84;;;1.36;100.00
69318;BME280;56457;52.190;4.440;2023-03-03T05:14:21;102755.88;;;1.39;100.00
69318;BME280;56457;52.190;4.440;2023-03-03T05:15:22;102761.13;;;1.41;100.00
69318;BME280;56457;52.190;4.440;2023-03-03T05:16:22;102754.19;;;1.40;100.00
69318;BME280;56457;52.190;4.440;2023-03-03T05:17:22;102758.53;;;1.41;100.00
69318;BME280;56457;52.190;4.440;2023-03-03T05:18:23;102754.19;;;1.40;100.00
69318;BME280;56457;52.190;4.440;2023-03-03T05:19:23;102762.81;;;1.40;100.00
69318;BME280;56457;52.190;4.440;2023-03-03T05:20:24;102766.31;;;1.41;100.00
69318;BME280;56457;52.190;4.440;2023-03-03T05:21:24;102761.03;;;1.39;100.00
69318;BME280;56457;52.190;4.440;2023-03-03T05:22:25;102766.22;;;1.39;100.00
69318;BME280;56457;52.190;4.440;2023-03-03T05:23:25;102762.91;;;1.42;100.00
69318;BME280;56457;52.190;4.440;2023-03-03T05:24:26;102764.44;;;1.38;100.00
69318;BME280;56457;52.190;4.440;2023-03-03T05:25:26;102764.44;;;1.38;100.00
69318;BME280;56457;52.190;4.440;2023-03-03T05:26:27;102764.53;;;1.40;100.00
69318;BME280;56457;52.190;4.440;2023-03-03T05:27:27;102763.63;;;1.39;100.00
69318;BME280;56457;52.190;4.440;2023-03-03T05:28:27;102765.25;;;1.37;100.00
69318;BME280;56457;52.190;4.440;2023-03-03T05:29:28;102762.53;;;1.35;100.00
69318;BME280;56457;52.190;4.440;2023-03-03T05:30:30;102764.53;;;1.40;100.00
69318;BME280;56457;52.190;4.440;2023-03-03T05:31:31;102759.44;;;1.41;100.00
69318;BME280;56457;52.190;4.440;2023-03-03T05:32:31;102765.41;;;1.40;100.00